sensor_id;sensor_type;location;lat;lon;timestamp;P1;durP1;ratioP1;P2;durP2;ratioP2
73315;SDS011;61545;53.726;-0.444;2023-02-24T00:01:29;10.6;;;3.4;;
73315;SDS011;61545;53.726;-0.444;2023-02-24T00:06:29;9.3;;;3;;
73315;SDS011;61545;53.726;-0.444;2023-02-24T00:11:29;8.7;;;3.3;;
73315;SDS011;61545;53.726;-0.444;2023-02-24T00:16:29;14.0;;;2.9;;
73315;SDS011;61545;53.726;-0.444;2023-02-24T00:21:29;11.0;;;2.9;;
73315;SDS011;61545;53.726;-0.444;2023-02-24T00:26:29;11.0;;;2.9;;
73315;SDS011;61545;53.726;-0.444;2023-02-24T00:31:29;10.4;;;2.4;;
73315;SDS011;61545;53.726;-0.444;2023-02-24T00:36:29;8.8;;;2.6;;
73315;SDS011;61545;53.726;-0.444;2023-02-24T00:41:30;6.0;;;1.9;;
73315;SDS011;61545;53.726;-0.444;2023-02-24T00:46:29;12.5;;;2.6;;
73315;SDS011;61545;53.726;-0.444;2023-02-24T00:51:29;8.2;;;2.4;;
73315;SDS011;61545;53.726;-0.444;2023-02-24T00:56:29;8.2;;;2.4;;
73315;SDS011;61545;53.726;-0.444;2023-02-24T01:01:30;11.2;;;2.2;;
73315;SDS011;61545;53.726;-0.444;2023-02-24T01:06:29;9.6;;;2.9;;
73315;SDS011;61545;53.726;-0.444;2023-02-24T01:11:32;11.4;;;2.8;;
73315;SDS011;61545;53.726;-0.444;2023-02-24T01:16:29;9.7;;;3.1;;
73315;SDS011;61545;53.726;-0.444;2023-02-24T01:21:29;9.1;;;3.3;;
73315;SDS011;61545;53.726;-0.444;2023-02-24T01:26:29;9.1;;;3.3;;
73315;SDS011;61545;53.726;-0.444;2023-02-24T01:31:29;9.2;;;3.5;;
73315;SDS011;61545;53.726;-0.444;2023-02-24T01:36:29;10.4;;;3.8;;
73315;SDS011;61545;53.726;-0.444;2023-02-24T01:41:29;8.9;;;3.3;;
73315;SDS011;61545;53.726;-0.444;2023-02-24T01:46:30;9.2;;;3.1;;
73315;SDS011;61545;53.726;-0.444;2023-02-24T01:51:30;8.9;;;2.4;;
73315;SDS011;61545;53.726;-0.444;2023-02-24T01:56:29;8.9;;;2.4;;
73315;SDS011;61545;53.726;-0.444;2023-02-24T02:01:29;11.8;;;3;;
73315;SDS011;61545;53.726;-0.444;2023-02-24T02:06:29;10.1;;;2.5;;
73315;SDS011;61545;53.726;-0.444;2023-02-24T02:11:29;10.1;;;3.2;;
73315;SDS011;61545;53.726;-0.444;2023-02-24T02:16:38;11.2;;;3.5;;
73315;SDS011;61545;53.726;-0.444;2023-02-24T02:21:57;10.9;;;3.3;;
73315;SDS011;61545;53.726;-0.444;2023-02-24T02:26:46;10.9;;;3.3;;
73315;SDS011;61545;53.726;-0.444;2023-02-24T02:31:43;9.7;;;3.5;;
73315;SDS011;61545;53.726;-0.444;2023-02-24T02:36:30;8.9;;;3.3;;
73315;SDS011;61545;53.726;-0.444;2023-02-24T02:41:30;9.3;;;3.3;;
73315;SDS011;61545;53.726;-0.444;2023-02-24T02:46:31;7.5;;;2.8;;
73315;SDS011;61545;53.726;-0.444;2023-02-24T02:51:31;11.8;;;3.9;;
73315;SDS011;61545;53.726;-0.444;2023-02-24T02:56:31;11.8;;;3.9;;
73315;SDS011;61545;53.726;-0.444;2023-02-24T03:01:30;6.9;;;3.1;;
73315;SDS011;61545;53.726;-0.444;2023-02-24T03:06:30;10.6;;;3.9;;
73315;SDS011;61545;53.726;-0.444;2023-02-24T03:11:29;10.5;;;3.6;;
73315;SDS011;61545;53.726;-0.444;2023-02-24T03:16:29;7.9;;;3.8;;
73315;SDS011;61545;53.726;-0.444;2023-02-24T03:21:31;7.1;;;3.8;;
73315;SDS011;61545;53.726;-0.444;2023-02-24T03:26:30;7.1;;;3.8;;
73315;SDS011;61545;53.726;-0.444;2023-02-24T03:31:31;10.4;;;3.8;;
73315;SDS011;61545;53.726;-0.444;2023-02-24T03:36:29;8.3;;;3.6;;
73315;SDS011;61545;53.726;-0.444;2023-02-24T03:41:31;8.1;;;3.9;;
73315;SDS011;61545;53.726;-0.444;2023-02-24T03:46:30;7.6;;;3.3;;
73315;SDS011;61545;53.726;-0.444;2023-02-24T03:51:29;8.2;;;3.6;;
73315;SDS011;61545;53.726;-0.444;2023-02-24T03:56:35;8.2;;;3.6;;
73315;SDS011;61545;53.726;-0.444;2023-02-24T04:01:33;6.6;;;3;;
73315;SDS011;61545;53.726;-0.444;2023-02-24T04:06:33;5.3;;;3;;
73315;SDS011;61545;53.726;-0.444;2023-02-24T04:11:31;5.8;;;2.9;;
73315;SDS011;61545;53.726;-0.444;2023-02-24T04:16:33;6.8;;;3.3;;
73315;SDS011;61545;53.726;-0.444;2023-02-24T04:21:29;8.7;;;3.8;;
73315;SDS011;61545;53.726;-0.444;2023-02-24T04:26:29;8.7;;;3.8;;
73315;SDS011;61545;53.726;-0.444;2023-02-24T04:31:29;6.6;;;3.3;;
73315;SDS011;61545;53.726;-0.444;2023-02-24T04:36:29;6.2;;;3.1;;
73315;SDS011;61545;53.726;-0.444;2023-02-24T04:41:29;6.7;;;3.8;;
73315;SDS011;61545;53.726;-0.444;2023-02-24T04:46:30;7.7;;;3.1;;
73315;SDS011;61545;53.726;-0.444;2023-02-24T04:51:29;7.5;;;2.8;;
73315;SDS011;61545;53.726;-0.444;2023-02-24T04:56:29;7.5;;;2.8;;
73315;SDS011;61545;53.726;-0.444;2023-02-24T05:01:29;10.6;;;3.1;;
73315;SDS011;61545;53.726;-0.444;2023-02-24T05:06:29;4.9;;;2.4;;
73315;SDS011;61545;53.726;-0.444;2023-02-24T05:11:29;9.8;;;2.6;;
73315;SDS011;61545;53.726;-0.444;2023-02-24T05:16:29;10.5;;;2.4;;
73315;SDS011;61545;53.726;-0.444;2023-02-24T05:21:29;10.0;;;2.5;;
73315;SDS011;61545;53.726;-0.444;2023-02-24T05:26:29;10.0;;;2.5;;
73315;SDS011;61545;53.726;-0.444;2023-02-24T05:31:29;5.6;;;2.1;;
73315;SDS011;61545;53.726;-0.444;2023-02-24T05:36:30;6.9;;;2.5;;
73315;SDS011;61545;53.726;-0.444;2023-02-24T05:41:29;8.1;;;2.2;;
73315;SDS011;61545;53.726;-0.444;2023-02-24T05:46:32;4.2;;;1.6;;
73315;SDS011;61545;53.726;-0.444;2023-02-24T05:51:30;7.4;;;2;;
73315;SDS011;61545;53.726;-0.444;2023-02-24T05:56:30;7.4;;;2;;
73315;SDS011;61545;53.726;-0.444;2023-02-24T06:01:30;7.9;;;1.9;;
73315;SDS011;61545;53.726;-0.444;2023-02-24T06:06:29;5.8;;;1.8;;
73315;SDS011;61545;53.726;-0.444;2023-02-24T06:11:29;9.3;;;1.7;;
73315;SDS011;61545;53.726;-0.444;2023-02-24T06:16:29;7.9;;;1.9;;
73315;SDS011;61545;53.726;-0.444;2023-02-24T06:21:29;9.3;;;1.8;;
73315;SDS011;61545;53.726;-0.444;2023-02-24T06:26:29;9.3;;;1.8;;
73315;SDS011;61545;53.726;-0.444;2023-02-24T06:31:29;12.4;;;1.8;;
73315;SDS011;61545;53.726;-0.444;2023-02-24T06:36:29;11.1;;;2.2;;
73315;SDS011;61545;53.726;-0.444;2023-02-24T06:41:29;6.9;;;2.1;;
73315;SDS011;61545;53.726;-0.444;2023-02-24T06:46:29;4.8;;;1.3;;
73315;SDS011;61545;53.726;-0.444;2023-02-24T06:51:29;5.1;;;1;;
73315;SDS011;61545;53.726;-0.444;2023-02-24T06:56:29;5.1;;;1;;
73315;SDS011;61545;53.726;-0.444;2023-02-24T07:01:29;8.4;;;1.7;;
73315;SDS011;61545;53.726;-0.444;2023-02-24T07:06:30;5.4;;;1.2;;
73315;SDS011;61545;53.726;-0.444;2023-02-24T07:11:29;7.6;;;1.4;;
73315;SDS011;61545;53.726;-0.444;2023-02-24T07:16:29;6.3;;;1.2;;
73315;SDS011;61545;53.726;-0.444;2023-02-24T07:21:30;5.4;;;1.3;;
73315;SDS011;61545;53.726;-0.444;2023-02-24T07:26:29;5.4;;;1.3;;
73315;SDS011;61545;53.726;-0.444;2023-02-24T07:31:29;5.2;;;1.2;;
73315;SDS011;61545;53.726;-0.444;2023-02-24T07:36:29;7.8;;;1.6;;
73315;SDS011;61545;53.726;-0.444;2023-02-24T07:41:29;9.1;;;1.9;;
73315;SDS011;61545;53.726;-0.444;2023-02-24T07:46:29;8.6;;;1.2;;
73315;SDS011;61545;53.726;-0.444;2023-02-24T07:51:29;4.4;;;1.1;;
73315;SDS011;61545;53.726;-0.444;2023-02-24T07:56:29;4.4;;;1.1;;
73315;SDS011;61545;53.726;-0.444;2023-02-24T08:01:32;5.2;;;0.7;;
73315;SDS011;61545;53.726;-0.444;2023-02-24T08:06:30;8.3;;;1.3;;
73315;SDS011;61545;53.726;-0.444;2023-02-24T08:11:30;8.6;;;1.5;;
73315;SDS011;61545;53.726;-0.444;2023-02-24T08:16:29;5.5;;;1.3;;
73315;SDS011;61545;53.726;-0.444;2023-02-24T08:21:29;10.5;;;1.6;;
73315;SDS011;61545;53.726;-0.444;2023-02-24T08:26:29;10.5;;;1.6;;
73315;SDS011;61545;53.726;-0.444;2023-02-24T08:31:29;11.4;;;1.7;;
73315;SDS011;61545;53.726;-0.444;2023-02-24T08:36:29;15.5;;;2.2;;
73315;SDS011;61545;53.726;-0.444;2023-02-24T08:41:29;13.3;;;2;;
73315;SDS011;61545;53.726;-0.444;2023-02-24T08:46:31;10.9;;;2.2;;
73315;SDS011;61545;53.726;-0.444;2023-02-24T08:51:30;14.3;;;2.5;;
73315;SDS011;61545;53.726;-0.444;2023-02-24T08:56:30;14.3;;;2.5;;
73315;SDS011;61545;53.726;-0.444;2023-02-24T09:01:30;13.1;;;2.7;;
73315;SDS011;61545;53.726;-0.444;2023-02-24T09:06:35;8.4;;;2.1;;
73315;SDS011;61545;53.726;-0.444;2023-02-24T09:11:29;15.6;;;3.4;;
73315;SDS011;61545;53.726;-0.444;2023-02-24T09:16:29;15.1;;;2.8;;
73315;SDS011;61545;53.726;-0.444;2023-02-24T09:21:29;8.6;;;1.9;;
73315;SDS011;61545;53.726;-0.444;2023-02-24T09:26:29;8.6;;;1.9;;
73315;SDS011;61545;53.726;-0.444;2023-02-24T09:31:29;11.5;;;2.4;;
73315;SDS011;61545;53.726;-0.444;2023-02-24T09:36:29;10.4;;;2.4;;
73315;SDS011;61545;53.726;-0.444;2023-02-24T09:41:32;12.6;;;2.4;;
73315;SDS011;61545;53.726;-0.444;2023-02-24T09:46:30;12.1;;;2.4;;
73315;SDS011;61545;53.726;-0.444;2023-02-24T09:51:29;13.9;;;2.5;;
73315;SDS011;61545;53.726;-0.444;2023-02-24T09:56:31;13.9;;;2.5;;
73315;SDS011;61545;53.726;-0.444;2023-02-24T10:01:33;9.4;;;2.2;;
73315;SDS011;61545;53.726;-0.444;2023-02-24T10:06:30;10.3;;;2;;
73315;SDS011;61545;53.726;-0.444;2023-02-24T10:11:29;10.5;;;2.4;;
73315;SDS011;61545;53.726;-0.444;2023-02-24T10:16:29;11.1;;;2.3;;
73315;SDS011;61545;53.726;-0.444;2023-02-24T10:21:33;11.2;;;2;;
73315;SDS011;61545;53.726;-0.444;2023-02-24T10:26:31;11.2;;;2;;
73315;SDS011;61545;53.726;-0.444;2023-02-24T10:31:31;10.8;;;2.1;;
73315;SDS011;61545;53.726;-0.444;2023-02-24T10:36:29;12.0;;;2.3;;
73315;SDS011;61545;53.726;-0.444;2023-02-24T10:41:29;13.2;;;2.3;;
73315;SDS011;61545;53.726;-0.444;2023-02-24T10:46:30;14.2;;;2.1;;
73315;SDS011;61545;53.726;-0.444;2023-02-24T10:51:31;5.7;;;1.4;;
73315;SDS011;61545;53.726;-0.444;2023-02-24T10:56:29;5.7;;;1.4;;
73315;SDS011;61545;53.726;-0.444;2023-02-24T11:01:30;10.9;;;2.1;;
73315;SDS011;61545;53.726;-0.444;2023-02-24T11:06:30;11.1;;;2.1;;
73315;SDS011;61545;53.726;-0.444;2023-02-24T11:11:31;9.2;;;2.1;;
73315;SDS011;61545;53.726;-0.444;2023-02-24T11:16:39;10.7;;;2;;
73315;SDS011;61545;53.726;-0.444;2023-02-24T11:21:29;11.7;;;2.4;;
73315;SDS011;61545;53.726;-0.444;2023-02-24T11:26:33;11.7;;;2.4;;
73315;SDS011;61545;53.726;-0.444;2023-02-24T11:31:39;11.7;;;2.3;;
73315;SDS011;61545;53.726;-0.444;2023-02-24T11:36:34;6.6;;;1.9;;
73315;SDS011;61545;53.726;-0.444;2023-02-24T11:41:30;10.0;;;1.7;;
73315;SDS011;61545;53.726;-0.444;2023-02-24T11:46:34;9.1;;;1.7;;
73315;SDS011;61545;53.726;-0.444;2023-02-24T11:51:30;9.3;;;1.7;;
73315;SDS011;61545;53.726;-0.444;2023-02-24T11:56:31;9.3;;;1.7;;
73315;SDS011;61545;53.726;-0.444;2023-02-24T12:01:31;7.9;;;1.7;;
73315;SDS011;61545;53.726;-0.444;2023-02-24T12:06:33;10.0;;;1.8;;
73315;SDS011;61545;53.726;-0.444;2023-02-24T12:11:34;9.1;;;1.8;;
73315;SDS011;61545;53.726;-0.444;2023-02-24T12:16:31;8.5;;;1.5;;
73315;SDS011;61545;53.726;-0.444;2023-02-24T12:21:31;7.5;;;1.6;;
73315;SDS011;61545;53.726;-0.444;2023-02-24T12:26:31;7.5;;;1.6;;
73315;SDS011;61545;53.726;-0.444;2023-02-24T12:31:33;6.9;;;1.5;;
73315;SDS011;61545;53.726;-0.444;2023-02-24T12:36:39;7.4;;;1.8;;
73315;SDS011;61545;53.726;-0.444;2023-02-24T12:41:36;10.2;;;1.9;;
73315;SDS011;61545;53.726;-0.444;2023-02-24T12:46:32;7.5;;;1.9;;
73315;SDS011;61545;53.726;-0.444;2023-02-24T12:51:31;7.2;;;1.6;;
73315;SDS011;61545;53.726;-0.444;2023-02-24T12:56:33;7.2;;;1.6;;
73315;SDS011;61545;53.726;-0.444;2023-02-24T13:01:31;8.2;;;1.7;;
73315;SDS011;61545;53.726;-0.444;2023-02-24T13:06:39;6.7;;;1.8;;
73315;SDS011;61545;53.726;-0.444;2023-02-24T13:11:36;8.9;;;1.7;;
73315;SDS011;61545;53.726;-0.444;2023-02-24T13:16:30;8.3;;;1.5;;
73315;SDS011;61545;53.726;-0.444;2023-02-24T13:21:29;7.1;;;1.5;;
73315;SDS011;61545;53.726;-0.444;2023-02-24T13:26:30;7.1;;;1.5;;
73315;SDS011;61545;53.726;-0.444;2023-02-24T13:31:39;8.8;;;1.3;;
73315;SDS011;61545;53.726;-0.444;2023-02-24T13:36:29;4.3;;;1.3;;
73315;SDS011;61545;53.726;-0.444;2023-02-24T13:41:38;6.6;;;1.4;;
73315;SDS011;61545;53.726;-0.444;2023-02-24T13:46:32;8.9;;;1.7;;
73315;SDS011;61545;53.726;-0.444;2023-02-24T13:51:41;5.6;;;1.3;;
73315;SDS011;61545;53.726;-0.444;2023-02-24T13:56:34;5.6;;;1.3;;
73315;SDS011;61545;53.726;-0.444;2023-02-24T14:01:30;4.1;;;1.2;;
73315;SDS011;61545;53.726;-0.444;2023-02-24T14:06:29;3.5;;;0.9;;
73315;SDS011;61545;53.726;-0.444;2023-02-24T14:11:31;7.1;;;1.2;;
73315;SDS011;61545;53.726;-0.444;2023-02-24T14:16:32;5.5;;;1.3;;
73315;SDS011;61545;53.726;-0.444;2023-02-24T14:21:31;7.6;;;1.7;;
73315;SDS011;61545;53.726;-0.444;2023-02-24T14:26:32;7.6;;;1.7;;
73315;SDS011;61545;53.726;-0.444;2023-02-24T14:31:29;4.4;;;1.3;;
73315;SDS011;61545;53.726;-0.444;2023-02-24T14:36:31;5.6;;;1.3;;
73315;SDS011;61545;53.726;-0.444;2023-02-24T14:41:29;5.8;;;1.2;;
73315;SDS011;61545;53.726;-0.444;2023-02-24T14:46:29;4.8;;;1.1;;
73315;SDS011;61545;53.726;-0.444;2023-02-24T14:51:30;4.5;;;1.1;;
73315;SDS011;61545;53.726;-0.444;2023-02-24T14:56:31;4.5;;;1.1;;
73315;SDS011;61545;53.726;-0.444;2023-02-24T15:01:30;7.0;;;1.3;;
73315;SDS011;61545;53.726;-0.444;2023-02-24T15:06:30;5.5;;;1.2;;
73315;SDS011;61545;53.726;-0.444;2023-02-24T15:11:30;4.0;;;1.1;;
73315;SDS011;61545;53.726;-0.444;2023-02-24T15:16:32;4.8;;;1;;
73315;SDS011;61545;53.726;-0.444;2023-02-24T15:21:30;5.8;;;1.3;;
73315;SDS011;61545;53.726;-0.444;2023-02-24T15:26:30;5.8;;;1.3;;
73315;SDS011;61545;53.726;-0.444;2023-02-24T15:31:29;6.7;;;1.2;;
73315;SDS011;61545;53.726;-0.444;2023-02-24T15:36:31;4.7;;;1.4;;
73315;SDS011;61545;53.726;-0.444;2023-02-24T15:41:37;4.9;;;1.1;;
73315;SDS011;61545;53.726;-0.444;2023-02-24T15:46:30;4.8;;;1.1;;
73315;SDS011;61545;53.726;-0.444;2023-02-24T15:51:34;3.2;;;0.9;;
73315;SDS011;61545;53.726;-0.444;2023-02-24T15:56:30;3.2;;;0.9;;
73315;SDS011;61545;53.726;-0.444;2023-02-24T16:01:29;3.7;;;0.9;;
73315;SDS011;61545;53.726;-0.444;2023-02-24T16:06:29;5.6;;;1.1;;
73315;SDS011;61545;53.726;-0.444;2023-02-24T16:11:30;6.3;;;1.1;;
73315;SDS011;61545;53.726;-0.444;2023-02-24T16:16:29;5.8;;;1.2;;
73315;SDS011;61545;53.726;-0.444;2023-02-24T16:21:29;4.7;;;1.2;;
73315;SDS011;61545;53.726;-0.444;2023-02-24T16:26:29;4.7;;;1.2;;
73315;SDS011;61545;53.726;-0.444;2023-02-24T16:31:29;6.8;;;1.4;;
73315;SDS011;61545;53.726;-0.444;2023-02-24T16:36:29;5.5;;;1.3;;
73315;SDS011;61545;53.726;-0.444;2023-02-24T16:41:29;10.0;;;1.9;;
73315;SDS011;61545;53.726;-0.444;2023-02-24T16:46:32;9.5;;;1.8;;
73315;SDS011;61545;53.726;-0.444;2023-02-24T16:51:29;5.3;;;1.3;;
73315;SDS011;61545;53.726;-0.444;2023-02-24T16:56:29;5.3;;;1.3;;
73315;SDS011;61545;53.726;-0.444;2023-02-24T17:01:29;7.3;;;1.4;;
73315;SDS011;61545;53.726;-0.444;2023-02-24T17:06:29;8.8;;;1.8;;
73315;SDS011;61545;53.726;-0.444;2023-02-24T17:11:29;8.5;;;1.6;;
73315;SDS011;61545;53.726;-0.444;2023-02-24T17:16:29;5.6;;;1.3;;
73315;SDS011;61545;53.726;-0.444;2023-02-24T17:21:29;7.6;;;1.5;;
73315;SDS011;61545;53.726;-0.444;2023-02-24T17:26:29;7.6;;;1.5;;
73315;SDS011;61545;53.726;-0.444;2023-02-24T17:31:29;5.8;;;1.1;;
73315;SDS011;61545;53.726;-0.444;2023-02-24T17:36:29;11.9;;;3.2;;
73315;SDS011;61545;53.726;-0.444;2023-02-24T17:41:29;12.8;;;3.4;;
73315;SDS011;61545;53.726;-0.444;2023-02-24T17:46:29;9.4;;;3.1;;
73315;SDS011;61545;53.726;-0.444;2023-02-24T17:51:29;14.5;;;4.6;;
73315;SDS011;61545;53.726;-0.444;2023-02-24T17:56:29;14.5;;;4.6;;
73315;SDS011;61545;53.726;-0.444;2023-02-24T18:01:29;10.0;;;2.8;;
73315;SDS011;61545;53.726;-0.444;2023-02-24T18:06:29;8.3;;;2.2;;
73315;SDS011;61545;53.726;-0.444;2023-02-24T18:11:29;7.9;;;2.2;;
73315;SDS011;61545;53.726;-0.444;2023-02-24T18:16:29;7.0;;;1.9;;
73315;SDS011;61545;53.726;-0.444;2023-02-24T18:21:29;6.3;;;1.6;;
73315;SDS011;61545;53.726;-0.444;2023-02-24T18:26:29;6.3;;;1.6;;
73315;SDS011;61545;53.726;-0.444;2023-02-24T18:31:29;10.2;;;1.9;;
73315;SDS011;61545;53.726;-0.444;2023-02-24T18:36:29;12.9;;;2;;
73315;SDS011;61545;53.726;-0.444;2023-02-24T18:41:29;9.9;;;2.7;;
73315;SDS011;61545;53.726;-0.444;2023-02-24T18:46:29;5.9;;;1.6;;
73315;SDS011;61545;53.726;-0.444;2023-02-24T18:51:29;8.2;;;1.8;;
73315;SDS011;61545;53.726;-0.444;2023-02-24T18:56:30;8.2;;;1.8;;
73315;SDS011;61545;53.726;-0.444;2023-02-24T19:01:30;10.0;;;1.5;;
73315;SDS011;61545;53.726;-0.444;2023-02-24T19:06:30;8.1;;;1.6;;
73315;SDS011;61545;53.726;-0.444;2023-02-24T19:11:29;7.4;;;2.1;;
73315;SDS011;61545;53.726;-0.444;2023-02-24T19:16:29;12.9;;;3.3;;
73315;SDS011;61545;53.726;-0.444;2023-02-24T19:21:30;90.5;;;19;;
73315;SDS011;61545;53.726;-0.444;2023-02-24T19:26:29;90.5;;;19;;
73315;SDS011;61545;53.726;-0.444;2023-02-24T19:31:30;50.2;;;13.6;;
73315;SDS011;61545;53.726;-0.444;2023-02-24T19:36:30;22.2;;;5.8;;
73315;SDS011;61545;53.726;-0.444;2023-02-24T19:41:29;14.6;;;4;;
73315;SDS011;61545;53.726;-0.444;2023-02-24T19:46:29;13.7;;;4.1;;
73315;SDS011;61545;53.726;-0.444;2023-02-24T19:51:29;7.4;;;2.6;;
73315;SDS011;61545;53.726;-0.444;2023-02-24T19:56:30;7.4;;;2.6;;
73315;SDS011;61545;53.726;-0.444;2023-02-24T20:01:29;16.0;;;3.6;;
73315;SDS011;61545;53.726;-0.444;2023-02-24T20:06:30;8.5;;;3.3;;
73315;SDS011;61545;53.726;-0.444;2023-02-24T20:11:29;9.4;;;3.5;;
73315;SDS011;61545;53.726;-0.444;2023-02-24T20:16:29;14.6;;;3.4;;
73315;SDS011;61545;53.726;-0.444;2023-02-24T20:21:29;14.6;;;3.4;;
73315;SDS011;61545;53.726;-0.444;2023-02-24T20:26:29;13.1;;;3.2;;
73315;SDS011;61545;53.726;-0.444;2023-02-24T20:31:29;11.5;;;2.6;;
73315;SDS011;61545;53.726;-0.444;2023-02-24T20:36:29;16.1;;;3.1;;
73315;SDS011;61545;53.726;-0.444;2023-02-24T20:41:29;9.4;;;2;;
73315;SDS011;61545;53.726;-0.444;2023-02-24T20:46:30;5.9;;;1.5;;
73315;SDS011;61545;53.726;-0.444;2023-02-24T20:51:29;5.9;;;1.5;;
73315;SDS011;61545;53.726;-0.444;2023-02-24T20:56:30;7.2;;;1.4;;
73315;SDS011;61545;53.726;-0.444;2023-02-24T21:01:29;6.3;;;1.7;;
73315;SDS011;61545;53.726;-0.444;2023-02-24T21:06:29;7.3;;;2.1;;
73315;SDS011;61545;53.726;-0.444;2023-02-24T21:11:29;8.0;;;2;;
73315;SDS011;61545;53.726;-0.444;2023-02-24T21:16:29;7.7;;;1.6;;
73315;SDS011;61545;53.726;-0.444;2023-02-24T21:21:29;7.7;;;1.6;;
73315;SDS011;61545;53.726;-0.444;2023-02-24T21:26:29;7.7;;;1.8;;
73315;SDS011;61545;53.726;-0.444;2023-02-24T21:31:29;9.3;;;1.4;;
73315;SDS011;61545;53.726;-0.444;2023-02-24T21:36:29;8.7;;;2.2;;
73315;SDS011;61545;53.726;-0.444;2023-02-24T21:41:29;9.7;;;1.7;;
73315;SDS011;61545;53.726;-0.444;2023-02-24T21:46:29;10.1;;;2;;
73315;SDS011;61545;53.726;-0.444;2023-02-24T21:51:29;10.1;;;2;;
73315;SDS011;61545;53.726;-0.444;2023-02-24T21:56:29;8.7;;;1.7;;
73315;SDS011;61545;53.726;-0.444;2023-02-24T22:01:31;6.4;;;1.5;;
73315;SDS011;61545;53.726;-0.444;2023-02-24T22:06:30;8.7;;;1.5;;
73315;SDS011;61545;53.726;-0.444;2023-02-24T22:11:29;7.9;;;1.1;;
73315;SDS011;61545;53.726;-0.444;2023-02-24T22:16:29;5.7;;;1.4;;
73315;SDS011;61545;53.726;-0.444;2023-02-24T22:21:29;5.7;;;1.4;;
73315;SDS011;61545;53.726;-0.444;2023-02-24T22:26:29;8.5;;;1.6;;
73315;SDS011;61545;53.726;-0.444;2023-02-24T22:31:30;10.7;;;1.6;;
73315;SDS011;61545;53.726;-0.444;2023-02-24T22:36:30;8.0;;;1.6;;
73315;SDS011;61545;53.726;-0.444;2023-02-24T22:41:30;7.5;;;1.7;;
73315;SDS011;61545;53.726;-0.444;2023-02-24T22:46:30;6.0;;;1.2;;
73315;SDS011;61545;53.726;-0.444;2023-02-24T22:51:29;6.0;;;1.2;;
73315;SDS011;61545;53.726;-0.444;2023-02-24T22:56:31;12.9;;;2.1;;
73315;SDS011;61545;53.726;-0.444;2023-02-24T23:01:30;8.0;;;2.3;;
73315;SDS011;61545;53.726;-0.444;2023-02-24T23:06:29;11.5;;;1.8;;
73315;SDS011;61545;53.726;-0.444;2023-02-24T23:11:30;5.3;;;1.5;;
73315;SDS011;61545;53.726;-0.444;2023-02-24T23:16:30;8.9;;;1.6;;
73315;SDS011;61545;53.726;-0.444;2023-02-24T23:21:31;8.9;;;1.6;;
73315;SDS011;61545;53.726;-0.444;2023-02-24T23:26:29;8.0;;;1.6;;
73315;SDS011;61545;53.726;-0.444;2023-02-24T23:31:29;5.7;;;1.4;;
73315;SDS011;61545;53.726;-0.444;2023-02-24T23:36:29;8.1;;;1.5;;
73315;SDS011;61545;53.726;-0.444;2023-02-24T23:41:29;5.6;;;1;;
73315;SDS011;61545;53.726;-0.444;2023-02-24T23:46:30;7.5;;;1.9;;
73315;SDS011;61545;53.726;-0.444;2023-02-24T23:51:29;7.5;;;1.9;;
73315;SDS011;61545;53.726;-0.444;2023-02-24T23:56:29;6.6;;;1.9;;
